createdAt,value
2022-11-20T00:00:19.254Z,4.78
2022-11-20T00:02:46.128Z,6.28
2022-11-20T00:05:13.012Z,5.68
2022-11-20T00:07:39.836Z,5.22
2022-11-20T00:10:07.113Z,4.88
2022-11-20T00:12:34.105Z,6.00
2022-11-20T00:15:01.120Z,6.70
2022-11-20T00:17:27.969Z,5.80
2022-11-20T00:19:54.789Z,5.93
2022-11-20T00:22:21.753Z,5.38
2022-11-20T00:24:48.566Z,8.18
2022-11-20T00:27:15.470Z,6.03
2022-11-20T00:29:42.369Z,5.97
2022-11-20T00:32:09.161Z,7.72
2022-11-20T00:34:36.052Z,6.45
2022-11-20T00:37:02.853Z,7.13
2022-11-20T00:39:29.778Z,5.25
2022-11-20T00:41:56.603Z,5.47
2022-11-20T00:44:23.425Z,8.10
2022-11-20T00:46:50.249Z,8.73
2022-11-20T00:49:17.167Z,5.70
2022-11-20T00:51:44.107Z,5.65
2022-11-20T00:54:11.208Z,6.57
2022-11-20T00:56:38.021Z,5.35
2022-11-20T00:59:04.842Z,5.43
2022-11-20T01:01:31.824Z,5.88
2022-11-20T01:04:00.966Z,5.90
2022-11-20T01:06:29.192Z,8.35
2022-11-20T01:08:58.824Z,6.82
2022-11-20T01:11:31.637Z,7.25
2022-11-20T01:14:00.007Z,5.22
2022-11-20T01:16:35.153Z,4.95
2022-11-20T01:19:04.675Z,6.85
2022-11-20T01:21:33.124Z,5.60
2022-11-20T01:24:00.784Z,5.78
2022-11-20T01:26:34.541Z,5.50
2022-11-20T01:29:02.713Z,5.15
2022-11-20T01:31:32.308Z,5.85
2022-11-20T01:34:04.735Z,5.43
2022-11-20T01:36:33.136Z,6.28
2022-11-20T01:39:02.820Z,6.22
2022-11-20T01:41:49.746Z,6.18
2022-11-20T01:44:19.263Z,5.88
2022-11-20T01:46:59.241Z,7.57
2022-11-20T01:49:35.411Z,5.90
2022-11-20T01:52:25.449Z,5.80
2022-11-20T01:55:00.226Z,5.03
2022-11-20T01:57:30.831Z,7.00
2022-11-20T02:00:06.621Z,7.18
2022-11-20T02:02:34.119Z,7.05
2022-11-20T02:05:12.887Z,8.25
2022-11-20T02:07:40.171Z,7.90
2022-11-20T02:10:07.688Z,6.53
2022-11-20T02:12:52.946Z,7.25
2022-11-20T02:15:19.875Z,6.65
2022-11-20T02:17:46.730Z,6.45
2022-11-20T02:20:14.276Z,7.75
2022-11-20T02:22:54.350Z,6.22
2022-11-20T02:25:22.350Z,5.68
2022-11-20T02:27:49.765Z,6.53
2022-11-20T02:30:16.811Z,6.10
2022-11-20T02:32:43.753Z,5.88
2022-11-20T02:35:31.589Z,6.68
2022-11-20T02:38:02.118Z,8.68
2022-11-20T02:40:29.787Z,7.05
2022-11-20T02:42:57.691Z,7.07
2022-11-20T02:45:25.478Z,6.53
2022-11-20T02:47:53.297Z,6.53
2022-11-20T02:50:20.259Z,8.18
2022-11-20T02:52:47.122Z,6.45
2022-11-20T02:55:14.042Z,6.55
2022-11-20T02:57:40.857Z,6.63
2022-11-20T03:00:08.329Z,7.60
2022-11-20T03:02:35.497Z,6.97
2022-11-20T03:05:02.319Z,7.18
2022-11-20T03:07:29.219Z,7.00
2022-11-20T03:09:56.174Z,6.93
2022-11-20T03:12:23.006Z,7.43
2022-11-20T03:14:53.023Z,6.25
2022-11-20T03:17:20.393Z,5.05
2022-11-20T03:19:47.398Z,6.63
2022-11-20T03:22:14.379Z,5.80
2022-11-20T03:24:41.221Z,5.95
2022-11-20T03:27:08.218Z,7.38
2022-11-20T03:29:36.608Z,6.88
2022-11-20T03:32:03.458Z,7.47
2022-11-20T03:34:30.426Z,5.95
2022-11-20T03:36:57.221Z,5.50
2022-11-20T03:39:24.211Z,8.93
2022-11-20T03:41:51.462Z,7.05
2022-11-20T03:44:18.459Z,5.75
2022-11-20T03:46:45.403Z,7.70
2022-11-20T03:49:12.259Z,5.80
2022-11-20T03:51:39.120Z,7.82
2022-11-20T03:54:08.785Z,5.40
2022-11-20T03:56:38.003Z,5.90
2022-11-20T03:59:05.952Z,9.77
2022-11-20T04:01:35.899Z,6.70
2022-11-20T04:04:02.825Z,6.20
2022-11-20T04:06:34.461Z,5.38
2022-11-20T04:09:01.566Z,6.20
2022-11-20T04:11:33.504Z,7.45
2022-11-20T04:14:03.552Z,5.75
2022-11-20T04:16:32.531Z,7.60
2022-11-20T04:19:01.786Z,8.27
2022-11-20T04:21:29.495Z,5.60
2022-11-20T04:23:57.104Z,7.22
2022-11-20T04:26:26.596Z,6.32
2022-11-20T04:28:53.792Z,5.63
2022-11-20T04:31:23.036Z,6.78
2022-11-20T04:33:50.660Z,5.75
2022-11-20T04:36:23.716Z,6.25
2022-11-20T04:38:56.972Z,6.03
2022-11-20T04:41:26.503Z,6.00
2022-11-20T04:44:00.296Z,5.25
2022-11-20T04:46:28.434Z,6.95
2022-11-20T04:48:55.430Z,5.28
2022-11-20T04:51:22.824Z,5.05
2022-11-20T04:53:49.666Z,9.02
2022-11-20T04:56:17.243Z,4.13
2022-11-20T04:58:44.585Z,6.10
2022-11-20T05:01:15.794Z,5.35
2022-11-20T05:03:44.449Z,5.70
2022-11-20T05:06:13.520Z,5.47
2022-11-20T05:08:40.903Z,5.03
2022-11-20T05:11:20.613Z,4.03
2022-11-20T05:13:48.006Z,4.28
2022-11-20T05:16:20.521Z,3.65
2022-11-20T05:18:48.020Z,5.32
2022-11-20T05:21:15.493Z,4.15
2022-11-20T05:23:43.464Z,5.35
2022-11-20T05:26:15.679Z,6.30
2022-11-20T05:31:11.818Z,5.78
2022-11-20T05:33:41.511Z,4.00
2022-11-20T05:36:09.156Z,5.70
2022-11-20T05:38:35.995Z,6.38
2022-11-20T05:41:12.934Z,4.20
2022-11-20T05:43:41.745Z,5.18
2022-11-20T05:46:10.352Z,4.97
2022-11-20T05:48:38.007Z,4.85
2022-11-20T05:51:07.073Z,6.90
2022-11-20T05:53:35.663Z,6.20
2022-11-20T05:56:07.548Z,5.78
2022-11-20T05:58:35.003Z,5.65
2022-11-20T06:01:18.641Z,6.43
2022-11-20T06:03:48.892Z,5.85
2022-11-20T06:06:16.928Z,5.18
2022-11-20T06:08:44.892Z,5.13
2022-11-20T06:11:13.681Z,7.55
2022-11-20T06:13:42.544Z,5.82
2022-11-20T06:16:10.876Z,5.18
2022-11-20T06:18:38.054Z,5.20
2022-11-20T06:21:13.700Z,4.10
2022-11-20T06:23:41.264Z,5.57
2022-11-20T06:26:10.442Z,4.80
2022-11-20T06:28:37.515Z,5.35
2022-11-20T06:31:06.678Z,4.63
2022-11-20T06:33:34.335Z,6.43
2022-11-20T06:36:07.207Z,5.68
2022-11-20T06:38:37.148Z,6.28
2022-11-20T06:41:05.429Z,5.60
2022-11-20T06:43:32.338Z,5.28
2022-11-20T06:46:00.202Z,4.63
2022-11-20T06:48:28.911Z,5.20
2022-11-20T06:50:56.196Z,6.22
2022-11-20T06:53:23.904Z,6.00
2022-11-20T06:55:51.964Z,5.05
2022-11-20T06:58:19.299Z,4.28
2022-11-20T07:00:46.314Z,5.75
2022-11-20T07:03:14.036Z,5.97
2022-11-20T07:05:41.330Z,5.68
2022-11-20T07:08:08.516Z,4.88
2022-11-20T07:10:35.899Z,4.78
2022-11-20T07:13:02.777Z,6.07
2022-11-20T07:15:29.933Z,5.57
2022-11-20T07:17:59.295Z,6.18
2022-11-20T07:20:26.187Z,5.28
2022-11-20T07:22:56.917Z,6.03
2022-11-20T07:25:25.006Z,5.75
2022-11-20T07:27:51.958Z,5.57
2022-11-20T07:30:19.460Z,6.60
2022-11-20T07:32:53.359Z,5.38
2022-11-20T07:35:20.738Z,5.60
2022-11-20T07:37:49.611Z,5.05
2022-11-20T07:40:17.988Z,5.05
2022-11-20T07:42:51.995Z,7.45
2022-11-20T07:45:20.078Z,5.07
2022-11-20T07:47:46.868Z,5.22
2022-11-20T07:50:14.074Z,5.93
2022-11-20T07:52:41.543Z,5.43
2022-11-20T07:55:09.774Z,6.07
2022-11-20T07:57:36.577Z,6.40
2022-11-20T08:00:05.506Z,6.00
2022-11-20T08:02:32.284Z,5.97
2022-11-20T08:04:59.116Z,5.28
2022-11-20T08:07:25.957Z,7.15
2022-11-20T08:09:52.837Z,5.65
2022-11-20T08:12:40.044Z,7.05
2022-11-20T08:15:12.839Z,5.60
2022-11-20T08:17:40.185Z,6.28
2022-11-20T08:20:07.413Z,6.55
2022-11-20T08:22:34.215Z,6.13
2022-11-20T08:25:01.050Z,6.35
2022-11-20T08:27:27.858Z,6.18
2022-11-20T08:29:54.804Z,5.63
2022-11-20T08:32:21.568Z,7.57
2022-11-20T08:34:48.469Z,5.07
2022-11-20T08:37:15.373Z,4.85
2022-11-20T08:39:42.193Z,8.10
2022-11-20T08:42:09.421Z,8.10
2022-11-20T08:44:36.225Z,4.68
2022-11-20T08:47:02.998Z,6.13
2022-11-20T08:49:29.889Z,4.65
2022-11-20T08:51:56.744Z,5.45
2022-11-20T08:54:23.709Z,5.95
2022-11-20T08:56:50.574Z,5.63
2022-11-20T08:59:31.280Z,4.95
2022-11-20T09:02:04.156Z,5.35
2022-11-20T09:04:30.967Z,4.90
2022-11-20T09:06:57.779Z,4.00
2022-11-20T09:09:24.982Z,4.82
2022-11-20T09:11:52.103Z,6.13
2022-11-20T09:14:18.965Z,4.75
2022-11-20T09:16:47.734Z,3.83
2022-11-20T09:22:01.404Z,4.13
2022-11-20T09:24:29.019Z,4.28
2022-11-20T09:26:55.800Z,4.03
2022-11-20T09:29:23.203Z,4.50
2022-11-20T09:31:50.233Z,5.20
2022-11-20T09:34:17.106Z,3.40
2022-11-20T09:36:43.881Z,4.85
2022-11-20T09:39:10.743Z,5.03
2022-11-20T09:41:55.860Z,4.05
2022-11-20T09:44:25.472Z,6.63
2022-11-20T09:46:56.648Z,5.18
2022-11-20T09:49:47.574Z,5.47
2022-11-20T09:52:31.525Z,4.57
2022-11-20T09:54:59.332Z,3.58
2022-11-20T09:57:42.137Z,4.15
2022-11-20T10:00:14.015Z,2.20
2022-11-20T10:03:00.618Z,2.97
2022-11-20T10:05:32.702Z,3.33
2022-11-20T10:10:52.615Z,3.42
2022-11-20T10:13:35.077Z,7.78
2022-11-20T10:16:34.491Z,3.30
2022-11-20T10:19:07.733Z,5.28
2022-11-20T10:21:37.361Z,3.13
2022-11-20T10:24:48.382Z,2.33
2022-11-20T10:27:33.210Z,2.85
2022-11-20T10:30:13.195Z,3.60
2022-11-20T10:32:49.632Z,2.63
2022-11-20T10:35:28.480Z,2.88
2022-11-20T10:37:59.686Z,4.13
2022-11-20T10:40:46.235Z,2.97
2022-11-20T10:43:27.244Z,2.88
2022-11-20T10:46:06.262Z,2.47
2022-11-20T10:48:33.566Z,3.47
2022-11-20T10:51:00.358Z,2.92
2022-11-20T10:53:51.483Z,3.20
2022-11-20T10:56:36.939Z,2.33
2022-11-20T10:59:25.379Z,2.35
2022-11-20T11:01:52.653Z,2.75
2022-11-20T11:04:40.736Z,1.63
2022-11-20T11:07:10.571Z,2.50
2022-11-20T11:09:44.050Z,1.55
2022-11-20T11:12:11.787Z,1.85
2022-11-20T11:14:50.937Z,1.80
2022-11-20T11:17:32.634Z,2.67
2022-11-20T11:20:11.699Z,2.13
2022-11-20T11:23:05.447Z,2.05
2022-11-20T11:25:37.514Z,1.73
2022-11-20T11:28:05.987Z,2.00
2022-11-20T11:30:44.330Z,1.92
2022-11-20T11:33:19.372Z,1.63
2022-11-20T11:35:51.332Z,1.25
2022-11-20T11:38:24.010Z,2.78
2022-11-20T11:43:44.750Z,6.60
2022-11-20T11:46:32.669Z,3.60
2022-11-20T11:49:19.466Z,1.55
2022-11-20T11:52:23.781Z,2.72
2022-11-20T11:54:56.091Z,3.55
2022-11-20T12:00:03.949Z,1.33
2022-11-20T12:02:45.808Z,2.90
2022-11-20T12:05:23.611Z,3.05
2022-11-20T12:07:53.743Z,4.93
2022-11-20T12:10:20.621Z,2.22
2022-11-20T12:12:59.650Z,2.45
2022-11-20T12:15:35.334Z,2.30
2022-11-20T12:18:02.290Z,1.50
2022-11-20T12:20:41.621Z,2.08
2022-11-20T12:23:26.735Z,3.30
2022-11-20T12:25:57.129Z,3.40
2022-11-20T12:28:39.110Z,4.38
2022-11-20T12:31:28.973Z,3.08
2022-11-20T12:34:18.576Z,1.98
2022-11-20T12:36:57.890Z,2.10
2022-11-20T12:39:49.352Z,3.10
2022-11-20T12:42:43.531Z,2.58
2022-11-20T12:45:41.354Z,2.88
2022-11-20T12:48:46.700Z,1.98
2022-11-20T12:51:15.853Z,2.42
2022-11-20T12:54:07.248Z,2.33
2022-11-20T12:56:48.607Z,8.77
2022-11-20T12:59:34.888Z,3.30
2022-11-20T13:02:17.969Z,2.78
2022-11-20T13:05:15.586Z,2.83
2022-11-20T13:07:44.096Z,3.50
2022-11-20T13:10:49.602Z,3.92
2022-11-20T13:13:58.038Z,2.45
2022-11-20T13:16:55.634Z,3.72
2022-11-20T13:19:22.852Z,3.03
2022-11-20T13:21:51.553Z,3.55
2022-11-20T13:24:24.642Z,2.78
2022-11-20T13:27:13.974Z,2.95
2022-11-20T13:29:45.985Z,2.55
2022-11-20T13:32:21.588Z,3.30
2022-11-20T13:34:57.671Z,4.57
2022-11-20T13:37:31.486Z,3.58
2022-11-20T13:40:13.201Z,4.78
2022-11-20T13:42:45.844Z,3.50
2022-11-20T13:45:23.955Z,2.38
2022-11-20T13:47:53.273Z,4.28
2022-11-20T13:50:22.817Z,4.30
2022-11-20T13:53:27.238Z,4.10
2022-11-20T13:56:20.410Z,2.85
2022-11-20T13:59:15.117Z,2.40
2022-11-20T14:01:46.085Z,2.75
2022-11-20T14:04:21.471Z,2.97
2022-11-20T14:06:49.749Z,4.50
2022-11-20T14:09:35.051Z,3.50
2022-11-20T14:12:03.902Z,2.70
2022-11-20T14:14:34.163Z,3.50
2022-11-20T14:17:08.723Z,2.53
2022-11-20T14:19:38.086Z,5.10
2022-11-20T14:22:21.062Z,3.08
2022-11-20T14:24:49.584Z,1.40
2022-11-20T14:27:21.794Z,1.65
2022-11-20T14:32:21.606Z,2.05
2022-11-20T14:34:50.900Z,4.40
2022-11-20T14:37:33.370Z,3.78
2022-11-20T14:40:01.655Z,4.03
2022-11-20T14:42:29.920Z,3.13
2022-11-20T14:44:59.228Z,2.20
2022-11-20T14:47:32.146Z,2.72
2022-11-20T14:50:02.626Z,3.10
2022-11-20T14:52:32.646Z,3.03
2022-11-20T14:55:00.709Z,1.42
2022-11-20T14:57:27.507Z,2.42
2022-11-20T15:00:09.748Z,2.55
2022-11-20T15:02:42.267Z,3.05
2022-11-20T15:05:09.341Z,3.50
2022-11-20T15:07:41.449Z,1.20
2022-11-20T15:12:40.752Z,2.03
2022-11-20T15:15:11.833Z,2.38
2022-11-20T15:17:41.202Z,1.23
2022-11-20T15:20:14.601Z,1.20
2022-11-20T15:22:41.475Z,1.35
2022-11-20T15:25:19.142Z,2.70
2022-11-20T15:27:49.813Z,1.75
2022-11-20T15:30:21.479Z,3.08
2022-11-20T15:32:48.594Z,1.55
2022-11-20T15:35:16.715Z,1.58
2022-11-20T15:37:44.034Z,2.53
2022-11-20T15:40:11.290Z,3.50
2022-11-20T15:42:38.152Z,3.72
2022-11-20T15:45:05.367Z,1.13
2022-11-20T15:47:35.273Z,1.50
2022-11-20T15:50:02.259Z,2.50
2022-11-20T15:52:40.211Z,3.97
2022-11-20T15:55:11.322Z,2.95
2022-11-20T15:57:38.167Z,2.92
2022-11-20T16:00:05.699Z,1.95
2022-11-20T16:02:32.512Z,2.40
2022-11-20T16:04:59.348Z,3.88
2022-11-20T16:07:26.173Z,3.72
2022-11-20T16:09:52.991Z,5.72
2022-11-20T16:12:38.228Z,4.85
2022-11-20T16:15:24.106Z,5.95
2022-11-20T16:17:50.925Z,3.35
2022-11-20T16:20:17.765Z,3.90
2022-11-20T16:22:44.671Z,3.90
2022-11-20T16:25:11.490Z,4.32
2022-11-20T16:27:38.329Z,6.60
2022-11-20T16:30:05.672Z,4.50
2022-11-20T16:32:32.538Z,5.82
2022-11-20T16:34:59.507Z,5.68
2022-11-20T16:37:26.350Z,2.95
2022-11-20T16:39:53.207Z,3.38
2022-11-20T16:42:20.041Z,5.20
2022-11-20T16:44:47.881Z,4.22
2022-11-20T16:47:14.727Z,3.10
2022-11-20T16:49:41.578Z,2.42
2022-11-20T16:52:08.413Z,4.15
2022-11-20T16:54:35.230Z,2.10
2022-11-20T16:57:02.063Z,6.30
2022-11-20T16:59:28.961Z,6.13
2022-11-20T17:01:55.842Z,6.10
2022-11-20T17:04:23.118Z,3.72
2022-11-20T17:06:50.093Z,5.82
2022-11-20T17:09:17.507Z,5.00
2022-11-20T17:11:44.365Z,6.00
2022-11-20T17:14:14.305Z,6.47
2022-11-20T17:16:41.320Z,5.75
2022-11-20T17:19:08.992Z,8.68
2022-11-20T17:21:36.612Z,10.65
2022-11-20T17:24:06.506Z,8.82
2022-11-20T17:26:34.130Z,7.75
2022-11-20T17:29:06.330Z,11.05
2022-11-20T17:34:01.780Z,9.85
2022-11-20T17:36:29.553Z,7.57
2022-11-20T17:38:56.555Z,8.48
2022-11-20T17:41:25.861Z,5.57
2022-11-20T17:44:00.617Z,7.82
2022-11-20T17:46:30.014Z,5.18
2022-11-20T17:48:56.982Z,5.35
2022-11-20T17:51:26.078Z,7.63
2022-11-20T17:53:56.118Z,6.55
2022-11-20T17:56:41.932Z,5.68
2022-11-20T17:59:11.126Z,5.97
2022-11-20T18:01:39.483Z,6.15
2022-11-20T18:04:06.892Z,10.13
2022-11-20T18:06:33.695Z,9.32
2022-11-20T18:09:02.561Z,5.03
2022-11-20T18:11:33.695Z,6.50
2022-11-20T18:14:20.929Z,5.72
2022-11-20T18:16:56.988Z,6.10
2022-11-20T18:19:31.335Z,4.55
2022-11-20T18:22:01.355Z,6.60
2022-11-20T18:24:28.418Z,7.80
2022-11-20T18:26:55.248Z,8.85
2022-11-20T18:29:22.584Z,8.07
2022-11-20T18:31:49.809Z,6.50
2022-11-20T18:34:17.067Z,7.45
2022-11-20T18:36:45.250Z,8.50
2022-11-20T18:39:13.208Z,8.98
2022-11-20T18:41:59.480Z,9.63
2022-11-20T18:44:47.975Z,10.32
2022-11-20T18:47:37.948Z,9.88
2022-11-20T18:50:06.975Z,10.57
2022-11-20T18:52:47.936Z,8.98
2022-11-20T18:55:14.842Z,8.45
2022-11-20T18:57:41.952Z,6.55
2022-11-20T19:00:10.155Z,7.13
2022-11-20T19:02:43.002Z,9.13
2022-11-20T19:05:12.400Z,10.35
2022-11-20T19:07:39.326Z,10.25
2022-11-20T19:10:06.921Z,9.32
2022-11-20T19:12:33.717Z,7.05
2022-11-20T19:15:00.633Z,8.82
2022-11-20T19:17:27.489Z,8.52
2022-11-20T19:19:55.238Z,8.60
2022-11-20T19:22:22.292Z,9.05
2022-11-20T19:24:49.591Z,6.30
2022-11-20T19:27:16.492Z,6.93
2022-11-20T19:29:43.340Z,6.63
2022-11-20T19:32:10.278Z,6.43
2022-11-20T19:34:37.126Z,7.10
2022-11-20T19:37:05.187Z,7.43
2022-11-20T19:39:32.150Z,7.72
2022-11-20T19:41:58.951Z,7.68
2022-11-20T19:44:25.820Z,6.78
2022-11-20T19:46:52.694Z,8.20
2022-11-20T19:49:19.485Z,8.50
2022-11-20T19:51:49.235Z,11.18
2022-11-20T19:54:17.464Z,13.10
2022-11-20T19:56:45.577Z,8.52
2022-11-20T19:59:13.101Z,7.03
2022-11-20T20:01:39.998Z,5.68
2022-11-20T20:04:07.169Z,10.50
2022-11-20T20:06:35.989Z,14.27
2022-11-20T20:09:08.465Z,11.30
2022-11-20T20:11:36.432Z,15.27
2022-11-20T20:14:04.844Z,11.70
2022-11-20T20:16:32.611Z,14.48
2022-11-20T20:19:01.846Z,9.38
2022-11-20T20:21:30.662Z,10.25
2022-11-20T20:23:58.500Z,16.02
2022-11-20T20:26:27.320Z,11.90
2022-11-20T20:28:54.449Z,14.85
2022-11-20T20:31:23.917Z,13.70
2022-11-20T20:33:50.983Z,11.77
2022-11-20T20:36:19.433Z,11.05
2022-11-20T20:38:46.606Z,14.65
2022-11-20T20:41:14.842Z,17.17
2022-11-20T20:44:07.834Z,13.75
2022-11-20T20:46:34.890Z,11.40
2022-11-20T20:49:02.005Z,12.93
2022-11-20T20:51:28.876Z,13.35
2022-11-20T20:53:56.113Z,18.55
2022-11-20T20:56:22.931Z,10.40
2022-11-20T20:58:49.771Z,6.53
2022-11-20T21:01:20.973Z,8.10
2022-11-20T21:03:47.916Z,6.37
2022-11-20T21:06:14.923Z,6.68
2022-11-20T21:08:44.286Z,8.77
2022-11-20T21:11:16.630Z,6.57
2022-11-20T21:13:44.707Z,6.70
2022-11-20T21:16:13.474Z,7.10
2022-11-20T21:18:40.343Z,6.78
2022-11-20T21:21:27.571Z,5.28
2022-11-20T21:23:54.492Z,5.15
2022-11-20T21:26:22.063Z,5.22
2022-11-20T21:28:50.069Z,5.25
2022-11-20T21:31:22.665Z,3.90
2022-11-20T21:33:51.446Z,4.47
2022-11-20T21:36:20.635Z,3.38
2022-11-20T21:38:48.070Z,5.97
2022-11-20T21:41:15.674Z,3.22
2022-11-20T21:43:43.023Z,2.70
2022-11-20T21:46:17.166Z,2.25
2022-11-20T21:48:45.692Z,2.05
2022-11-20T21:51:15.798Z,3.13
2022-11-20T21:53:43.517Z,3.45
2022-11-20T21:56:13.511Z,3.78
2022-11-20T21:58:44.369Z,3.00
2022-11-20T22:01:15.125Z,2.60
2022-11-20T22:03:42.421Z,5.38
2022-11-20T22:06:10.522Z,3.95
2022-11-20T22:08:38.389Z,4.75
2022-11-20T22:11:12.754Z,2.88
2022-11-20T22:13:58.949Z,1.73
2022-11-20T22:16:26.033Z,1.90
2022-11-20T22:18:55.338Z,1.48
2022-11-20T22:21:24.653Z,1.77
2022-11-20T22:23:52.262Z,2.90
2022-11-20T22:26:21.464Z,1.85
2022-11-20T22:28:53.519Z,1.30
2022-11-20T22:31:22.001Z,2.03
2022-11-20T22:33:49.085Z,1.83
2022-11-20T22:36:19.058Z,2.33
2022-11-20T22:38:46.355Z,1.48
2022-11-20T22:41:16.504Z,2.28
2022-11-20T22:43:44.473Z,2.28
2022-11-20T22:46:16.956Z,1.70
2022-11-20T22:48:50.622Z,2.00
2022-11-20T22:51:18.762Z,2.30
2022-11-20T22:53:46.187Z,2.55
2022-11-20T22:56:14.110Z,2.20
2022-11-20T22:58:43.661Z,2.40
2022-11-20T23:01:12.894Z,2.17
2022-11-20T23:03:41.757Z,2.88
2022-11-20T23:06:12.585Z,2.55
2022-11-20T23:08:40.869Z,2.22
2022-11-20T23:11:13.300Z,1.92
2022-11-20T23:13:40.838Z,2.30
2022-11-20T23:16:13.447Z,2.00
2022-11-20T23:18:40.931Z,1.20
2022-11-20T23:21:10.169Z,1.50
2022-11-20T23:23:37.198Z,3.65
2022-11-20T23:26:06.005Z,4.20
2022-11-20T23:28:33.049Z,1.40
2022-11-20T23:31:00.830Z,1.63
2022-11-20T23:33:27.745Z,1.70
2022-11-20T23:35:54.879Z,1.77
2022-11-20T23:38:21.852Z,1.83
2022-11-20T23:40:52.872Z,1.45
2022-11-20T23:43:21.448Z,1.25
2022-11-20T23:45:59.644Z,2.97
2022-11-20T23:48:29.175Z,1.52
2022-11-20T23:50:56.862Z,1.35
2022-11-20T23:53:24.600Z,1.55
2022-11-20T23:55:56.588Z,1.55
2022-11-20T23:58:24.836Z,2.42
